Latest Weather Observations for Luncheon Hill

IDT60801

Issued at 10:31 am EST Friday 31 July 2015 (issued every 30 minutes, with the page automatically refreshed every 10 minutes)

About weather observations | Map of weather stations | Latest weather observations for TAS | Other Formats
Station Details ID: 091259 Name: LUNCHEON HILL (FORESTRY) Lat: -41.15 Lon: 145.15 Height: 344.0 m
Data from the previous 72 hours. | See also: Recent months at Luncheon Hill
Date/Time
EST
Temp
°C
App
Temp
°C
Dew
Point
Rel
Hum
%
Delta-T
°C
Wind Press
QNH
hPa
Press
MSL
hPa
Rain
since 9 am
mm
Dir
 
Spd
km/h
Gust
km/h
Spd
kts
Gust
kts
31/10:30am 5.6 0.9 5.0 96 0.3 WNW 19 26 10 14 - - 0.0
31/10:00am 4.8 0.7 4.2 96 0.3 W 15 24 8 13 - - 0.0
31/09:30am 4.4 0.2 3.8 96 0.3 WSW 15 24 8 13 - - 0.0
31/09:00am 3.9 -1.1 3.6 98 0.1 WNW 19 24 10 13 - - 14.6
31/08:30am 3.6 -0.7 3.3 98 0.1 WNW 15 19 8 10 - - 14.6
31/08:00am 3.2 -1.1 3.1 99 0.0 W 15 20 8 11 - - 14.6
31/07:30am 3.1 -2.0 3.0 99 0.0 WSW 19 30 10 16 - - 14.6
31/07:00am 2.8 -1.2 2.7 99 0.0 W 13 24 7 13 - - 14.4
31/06:30am 2.4 -2.5 2.3 99 0.0 SW 17 19 9 10 - - 14.4
31/06:00am 2.5 -2.3 2.4 99 0.0 SW 17 20 9 11 - - 14.4
31/05:30am 2.7 -2.1 2.6 99 0.0 SW 17 22 9 12 - - 14.2
31/05:00am 2.2 -3.1 2.1 99 0.0 SW 19 26 10 14 - - 14.2
31/04:30am 2.7 -2.1 2.6 99 0.0 SW 17 24 9 13 - - 14.0
31/04:00am 2.6 -2.2 2.5 99 0.0 SW 17 24 9 13 - - 14.0
31/03:30am 2.5 -2.0 2.4 99 0.0 SW 15 26 8 14 - - 14.0
31/03:00am 2.0 -3.3 1.9 99 0.0 SSW 19 26 10 14 - - 14.0
31/02:30am 2.3 -3.5 2.2 99 0.0 SSW 22 30 12 16 - - 13.8
31/02:00am 2.4 -3.8 2.3 99 0.0 SSW 24 39 13 21 - - 13.8
31/01:30am 2.6 -4.3 2.5 99 0.0 SSW 28 48 15 26 - - 13.8
31/01:19am 2.7 -4.2 2.6 99 0.0 SW 28 52 15 28 - - 13.8
31/01:00am 2.6 -3.5 2.5 99 0.0 SW 24 33 13 18 - - 13.8
31/12:30am 2.8 -4.5 2.7 99 0.0 SSW 30 50 16 27 - - 13.8
31/12:23am 2.7 -4.2 2.6 99 0.0 SSW 28 50 15 27 - - 13.8
31/12:00am 2.5 -3.7 2.4 99 0.0 SSW 24 33 13 18 - - 13.8
 
Date/Time
EST
Temp
°C
App
Temp
°C
Dew
Point
Rel
Hum
%
Delta-T
°C
Wind Press
QNH
hPa
Press
MSL
hPa
Rain
since 9 am
mm
Dir
 
Spd
km/h
Gust
km/h
Spd
kts
Gust
kts
30/11:30pm 3.1 -4.1 3.0 99 0.0 SSW 30 46 16 25 - - 13.6
30/11:19pm 3.5 -3.2 3.4 99 0.0 SW 28 46 15 25 - - 13.6
30/11:00pm 3.4 -3.4 3.3 99 0.0 SW 28 39 15 21 - - 13.6
30/10:30pm 3.6 -3.5 3.5 99 0.0 SSW 30 43 16 23 - - 13.6
30/10:00pm 3.9 -2.8 3.6 98 0.1 SW 28 50 15 27 - - 13.4
30/09:34pm 3.7 -3.4 3.6 99 0.0 SSW 30 48 16 26 - - 13.0
30/09:30pm 3.8 -3.7 3.7 99 0.0 SSW 32 48 17 26 - - 13.0
30/09:00pm 4.4 -3.1 4.3 99 0.0 SSW 33 57 18 31 - - 13.0
30/08:30pm 4.9 -3.3 4.8 99 0.0 SSW 37 63 20 34 - - 13.0
30/08:00pm 5.0 -2.4 4.9 99 0.0 SW 33 69 18 37 - - 12.8
30/07:53pm 5.4 0.2 5.3 99 0.0 WSW 22 54 12 29 - - 12.6
30/07:30pm 5.5 1.2 5.4 99 0.0 W 17 32 9 17 - - 11.6
30/07:00pm 5.3 0.6 5.2 99 0.0 WSW 19 28 10 15 - - 10.8
30/06:30pm 5.5 -1.2 5.4 99 0.0 SW 30 54 16 29 - - 10.4
30/06:00pm 6.2 -1.7 6.1 99 0.0 WNW 37 56 20 30 - - 8.4
30/05:59pm 6.6 -1.2 6.5 99 0.0 WNW 37 56 20 30 - - 8.0
30/05:57pm 7.4 -0.6 7.3 99 0.0 NW 39 56 21 30 - - 6.8
30/05:30pm 7.1 -1.4 7.0 99 0.0 NNW 41 59 22 32 - - 5.0
30/05:19pm 6.8 -0.2 6.7 99 0.0 NNW 33 52 18 28 - - 4.8
30/05:00pm 6.6 -0.3 6.5 99 0.0 NNW 32 46 17 25 - - 4.2
30/04:30pm 6.6 -0.3 6.5 99 0.0 NNW 32 46 17 25 - - 3.2
30/04:00pm 6.5 0.4 6.4 99 0.0 N 28 37 15 20 - - 2.0
30/03:30pm 6.5 -0.6 6.4 99 0.0 N 33 44 18 24 - - 2.0
30/03:00pm 6.6 -0.9 6.5 99 0.0 N 35 48 19 26 - - 1.8
30/02:30pm 6.6 -1.2 6.5 99 0.0 N 37 50 20 27 - - 1.4
30/02:09pm 6.7 -0.7 6.6 99 0.0 N 35 56 19 30 - - 1.4
30/02:00pm 6.7 -0.2 6.6 99 0.0 N 32 46 17 25 - - 1.0
30/01:42pm 6.8 -0.6 6.7 99 0.0 N 35 54 19 29 - - 0.4
30/01:30pm 6.9 -0.1 6.8 99 0.0 N 33 46 18 25 - - 0.4
30/01:13pm 7.0 0.0 6.9 99 0.0 N 33 54 18 29 - - 0.4
30/01:00pm 7.3 0.0 7.2 99 0.0 N 35 46 19 25 - - 0.2
30/12:50pm 7.4 0.0 6.8 96 0.3 N 35 54 19 29 - - 0.0
30/12:30pm 7.5 0.5 6.9 96 0.3 N 33 48 18 26 - - 0.0
30/12:00pm 7.5 0.5 6.9 96 0.3 N 33 48 18 26 - - 0.0
30/11:30am 7.9 0.5 6.8 93 0.5 N 35 52 19 28 - - 0.0
30/11:00am 7.8 0.7 6.6 92 0.6 N 33 43 18 23 - - 0.0
30/10:30am 7.7 0.3 6.6 93 0.5 N 35 46 19 25 - - 0.0
30/10:00am 7.5 0.5 6.8 95 0.3 N 33 50 18 27 - - 0.0
30/09:30am 7.4 0.6 7.0 97 0.2 N 32 43 17 23 - - 0.0
30/09:00am 7.2 0.1 6.3 94 0.4 N 33 43 18 23 - - 1.2
30/08:30am 6.8 -0.1 6.4 97 0.2 N 32 41 17 22 - - 1.2
30/08:00am 6.5 -0.5 6.1 97 0.2 N 32 39 17 21 - - 1.2
30/07:30am 6.3 -0.4 5.7 96 0.3 N 30 37 16 20 - - 1.2
30/07:00am 6.3 -0.3 5.9 97 0.2 N 30 39 16 21 - - 1.2
30/06:30am 6.3 0.1 6.0 98 0.1 N 28 35 15 19 - - 1.2
30/06:00am 6.4 0.5 6.0 97 0.2 N 26 33 14 18 - - 1.2
30/05:30am 6.2 -0.1 5.8 97 0.2 N 28 35 15 19 - - 1.2
30/05:00am 6.1 0.2 5.7 97 0.2 N 26 33 14 18 - - 1.2
30/04:30am 6.2 0.7 5.8 97 0.2 N 24 32 13 17 - - 1.2
30/04:00am 6.0 0.8 5.7 98 0.1 N 22 30 12 16 - - 1.2
30/03:30am 6.2 1.5 5.9 98 0.1 N 20 24 11 13 - - 1.2
30/03:00am 6.3 1.2 5.9 97 0.2 N 22 30 12 16 - - 1.2
30/02:30am 6.6 1.2 6.2 97 0.2 N 24 30 13 16 - - 1.2
30/02:00am 6.5 1.1 6.2 98 0.1 N 24 32 13 17 - - 1.2
30/01:30am 6.5 1.5 6.4 99 0.0 N 22 32 12 17 - - 1.2
30/01:00am 6.6 1.2 6.5 99 0.0 N 24 30 13 16 - - 1.2
30/12:30am 6.7 1.3 6.4 98 0.1 N 24 37 13 20 - - 1.2
30/12:00am 6.6 0.9 6.5 99 0.0 N 26 33 14 18 - - 1.2
 
Date/Time
EST
Temp
°C
App
Temp
°C
Dew
Point
Rel
Hum
%
Delta-T
°C
Wind Press
QNH
hPa
Press
MSL
hPa
Rain
since 9 am
mm
Dir
 
Spd
km/h
Gust
km/h
Spd
kts
Gust
kts
29/11:30pm 6.4 1.4 6.3 99 0.0 N 22 30 12 16 - - 1.2
29/11:00pm 6.4 1.0 6.3 99 0.0 N 24 32 13 17 - - 1.2
29/10:30pm 6.4 1.8 6.3 99 0.0 N 20 33 11 18 - - 1.0
29/10:00pm 6.4 1.9 6.3 99 0.0 N 19 22 10 12 - - 1.0
29/09:30pm 6.5 2.1 6.4 99 0.0 N 19 24 10 13 - - 1.0
29/09:00pm 6.6 1.6 6.5 99 0.0 N 22 28 12 15 - - 1.0
29/08:30pm 6.9 2.0 6.8 99 0.0 N 22 28 12 15 - - 1.0
29/08:00pm 7.1 3.2 7.0 99 0.0 N 17 20 9 11 - - 1.0
29/07:30pm 7.1 1.8 7.0 99 0.0 NNW 24 32 13 17 - - 1.0
29/07:00pm 7.2 2.3 7.1 99 0.0 NNW 22 30 12 16 - - 1.0
29/06:30pm 7.3 3.4 7.2 99 0.0 NNW 17 20 9 11 - - 1.0
29/06:00pm 7.3 3.8 7.2 99 0.0 NNW 15 19 8 10 - - 1.0
29/05:30pm 7.4 3.5 7.3 99 0.0 NNW 17 22 9 12 - - 1.0
29/05:00pm 7.4 2.6 7.3 99 0.0 NW 22 30 12 16 - - 1.0
29/04:30pm 7.5 1.6 7.4 99 0.0 NW 28 37 15 20 - - 0.6
29/04:00pm 7.7 2.6 7.6 99 0.0 NW 24 30 13 16 - - 0.6
29/03:30pm 7.9 1.1 7.8 99 0.0 NW 33 44 18 24 - - 0.6
29/03:19pm 8.1 1.9 8.0 99 0.0 NW 30 54 16 29 - - 0.4
29/03:00pm 8.7 3.4 8.6 99 0.0 NW 26 39 14 21 - - 0.2
29/02:30pm 9.2 4.8 9.1 99 0.1 NW 22 32 12 17 - - 0.2
29/02:00pm 9.2 5.2 9.1 99 0.1 NW 20 28 11 15 - - 0.2
29/01:30pm 9.0 4.6 8.9 99 0.0 NW 22 30 12 16 - - 0.2
29/01:00pm 9.2 5.4 9.1 99 0.1 NW 19 28 10 15 - - 0.2
29/12:30pm 8.7 4.6 8.6 99 0.0 NW 20 26 11 14 - - 0.2
29/12:00pm 8.8 5.7 8.7 99 0.0 NW 15 24 8 13 - - 0.2
29/11:30am 8.7 4.8 8.6 99 0.0 NW 19 26 10 14 - - 0.2
29/11:00am 8.3 5.0 8.2 99 0.0 NW 15 20 8 11 - - 0.2
29/10:30am 7.5 3.1 7.4 99 0.0 NNW 20 30 11 16 - - 0.2
29/10:00am 7.5 3.7 7.4 99 0.0 N 17 22 9 12 - - 0.0
29/09:30am 7.2 4.4 7.1 99 0.0 N 11 17 6 9 - - 0.0
29/09:00am 6.7 3.4 6.6 99 0.0 N 13 17 7 9 - - 7.0
29/08:30am 6.4 3.1 6.3 99 0.0 NW 13 19 7 10 - - 7.0
29/08:00am 6.1 3.1 6.0 99 0.0 NW 11 20 6 11 - - 7.0
29/07:30am 5.9 2.9 5.8 99 0.0 NNW 11 15 6 8 - - 6.2
29/07:00am 5.8 2.4 5.7 99 0.0 NW 13 17 7 9 - - 6.2
29/06:30am 5.7 1.9 5.6 99 0.0 NNW 15 19 8 10 - - 6.2
29/06:00am 6.1 2.3 6.0 99 0.0 NW 15 20 8 11 - - 6.2
29/05:30am 5.7 1.5 5.6 99 0.0 WNW 17 20 9 11 - - 6.2
29/05:00am 5.1 1.5 5.0 99 0.0 NW 13 15 7 8 - - 6.2
29/04:30am 5.6 2.1 5.5 99 0.0 NW 13 17 7 9 - - 6.2
29/04:00am 5.8 1.6 5.7 99 0.0 NW 17 19 9 10 - - 6.2
29/03:30am 5.4 1.9 5.3 99 0.0 NW 13 17 7 9 - - 6.2
29/03:00am 5.4 1.5 5.3 99 0.0 NW 15 17 8 9 - - 6.2
29/02:30am 5.8 2.4 5.7 99 0.0 WNW 13 17 7 9 - - 6.2
29/02:00am 5.8 2.4 5.7 99 0.0 W 13 17 7 9 - - 6.2
29/01:30am 6.0 2.6 5.9 99 0.0 WNW 13 19 7 10 - - 6.2
29/01:00am 5.7 2.2 5.6 99 0.0 NW 13 17 7 9 - - 6.2
29/12:30am 6.0 3.0 5.9 99 0.0 WNW 11 15 6 8 - - 6.0
29/12:00am 6.5 3.6 6.4 99 0.0 WSW 11 15 6 8 - - 6.0
 
Date/Time
EST
Temp
°C
App
Temp
°C
Dew
Point
Rel
Hum
%
Delta-T
°C
Wind Press
QNH
hPa
Press
MSL
hPa
Rain
since 9 am
mm
Dir
 
Spd
km/h
Gust
km/h
Spd
kts
Gust
kts
28/11:30pm 6.6 3.3 6.5 99 0.0 W 13 20 7 11 - - 6.0
28/11:00pm 6.5 3.2 6.4 99 0.0 WSW 13 20 7 11 - - 6.0
28/10:30pm 7.1 3.9 7.0 99 0.0 W 13 19 7 10 - - 5.6
28/10:00pm 7.1 4.7 7.0 99 0.0 W 9 15 5 8 - - 5.6
28/09:30pm 7.1 3.6 7.0 99 0.0 SW 15 20 8 11 - - 5.6
28/09:00pm 7.2 4.1 7.1 99 0.0 SW 13 22 7 12 - - 5.4
28/08:30pm 7.3 3.8 7.2 99 0.0 SW 15 24 8 13 - - 5.4
28/08:00pm 7.4 3.9 7.3 99 0.0 SW 15 24 8 13 - - 5.2
28/07:30pm 7.4 4.3 7.3 99 0.0 SW 13 19 7 10 - - 5.2
28/07:00pm 7.5 3.7 7.4 99 0.0 SW 17 33 9 18 - - 5.2
28/06:30pm 7.6 3.4 7.5 99 0.0 SW 19 32 10 17 - - 4.8
28/06:00pm 7.7 3.9 7.6 99 0.0 WSW 17 33 9 18 - - 4.8
28/05:30pm 7.8 4.0 7.7 99 0.0 WSW 17 26 9 14 - - 4.6
28/05:00pm 8.1 4.0 8.0 99 0.0 WSW 19 28 10 15 - - 4.6
28/04:30pm 8.3 4.7 8.2 99 0.0 WSW 17 37 9 20 - - 4.4
28/04:00pm 8.5 4.5 8.4 99 0.0 WSW 19 30 10 16 - - 4.4
28/03:30pm 8.4 4.4 8.3 99 0.0 WSW 19 30 10 16 - - 4.4
28/03:00pm 8.7 5.2 8.6 99 0.0 WSW 17 30 9 16 - - 4.4
28/02:30pm 8.4 4.2 8.3 99 0.0 WSW 20 39 11 21 - - 4.4
28/02:00pm 8.7 4.8 8.6 99 0.0 WSW 19 39 10 21 - - 3.8
28/01:30pm 8.5 4.5 8.4 99 0.0 WSW 19 33 10 18 - - 3.8
28/01:00pm 8.3 4.1 8.2 99 0.0 WSW 20 43 11 23 - - 3.8
28/12:30pm 8.4 4.2 8.3 99 0.0 SW 20 32 11 17 - - 3.0
28/12:00pm 8.5 4.5 8.4 99 0.0 W 19 39 10 21 - - 2.4
28/11:30am 8.3 4.3 8.2 99 0.0 WSW 19 37 10 20 - - 2.2
28/11:00am 8.3 4.3 8.2 99 0.0 SW 19 37 10 20 - - 2.2

Other Formats:

Comma delimited format used in spreadsheet applications
http://www.bom.gov.au/fwo/IDT60801/IDT60801.95956.axf

JavaScript Object Notation format (JSON) in row-major order
http://www.bom.gov.au/fwo/IDT60801/IDT60801.95956.json